FQTT

Chingozi Airport

Tete, Mozambique
METAR FQTT 151900Z 00000KT 9999 TS FEW020 FEW025CB 25/25 Q1014 RMK CB TO NE
Observed Flight Rules
Feb-15 @ 19:00 UTC (52 minutes ago) Visual Flight Rules
Visibility Clouds Conditions
10,000+ meters
  • Few at 2,000' AGL
  • Few at 2,500' AGL
  • Thunderstorm
Temperatures Readings
Current 25°C / 77°F
Dewpoint 25°C / 77°F
Humidity 100%
Altimeter 29.94" Hg
Pressure 1013.92 hPa
Elevation 160
METAR FQTT 151900Z 00000KT 9999 TS FEW020 FEW025CB 25/25 Q1014 RMK CB TO NE
Observed Flight Rules
Feb-15 @ 19:00 UTC
(52 minutes ago)
VFR
Clouds
  • Few at 2,000' AGL
  • Few at 2,500' AGL
Conditions
  • Thunderstorm
Temperature Dewpoint
25°C / 77°F 25°C / 77°F
Humidity Altimeter Pressure
100% 29.94" Hg 1013.92 hPa